EWG8LA LEPA-LOWS
Flight info
| Callsign | EWG8LA |
|---|---|
| Flight time | N/A |
| Altitude | 32000 |
| Route | MEROS DCT LAPIT DCT CHELY DCT LUMAS/N0456F340 DCT UNANA/N0466F300 DCT STP/N0445F380 DCT RAPED DCT PIGOS DCT EKSID DCT NOSTA DCT NOPMU DCT BORMI/N0450F370 DCT RASTA RASTA2R |
| Aircraft | A319/M-SDE3FGHIRWY/LB1 |
Departure
| Time | 2026-05-01 14:27 |
|---|---|
| Airport | Palma de Mallorca Airport (LEPA) |
Arrival
| Time | N/A |
|---|---|
| Airport | Salzburg Airport (LOWS) |
| Time | Latitude | Longitude | Altitude | Speed | Heading |
|---|---|---|---|---|---|
| 2026-05-01 13:50 | 39.54981 | 2.73395 | 30 ft | 0 kts | 163° |
| 2026-05-01 14:00 | 39.54982 | 2.73395 | 30 ft | 0 kts | 163° |
| 2026-05-01 14:16 | 39.55005 | 2.73386 | 30 ft | 4 kts | 163° |
| 2026-05-01 14:16 | 39.55026 | 2.73377 | 30 ft | 4 kts | 150° |
| 2026-05-01 14:16 | 39.55042 | 2.73355 | 30 ft | 4 kts | 97° |
| 2026-05-01 14:16 | 39.55040 | 2.73322 | 30 ft | 4 kts | 80° |
| 2026-05-01 14:17 | 39.55039 | 2.73303 | 30 ft | 0 kts | 96° |
| 2026-05-01 14:17 | 39.55038 | 2.73303 | 30 ft | 0 kts | 96° |
| 2026-05-01 14:21 | 39.55037 | 2.73327 | 30 ft | 4 kts | 96° |
| 2026-05-01 14:22 | 39.55065 | 2.73450 | 30 ft | 10 kts | 57° |
| 2026-05-01 14:22 | 39.55109 | 2.73542 | 30 ft | 14 kts | 59° |
| 2026-05-01 14:22 | 39.55163 | 2.73658 | 30 ft | 17 kts | 58° |
| 2026-05-01 14:22 | 39.55157 | 2.73762 | 30 ft | 14 kts | 156° |
| 2026-05-01 14:23 | 39.55067 | 2.73829 | 30 ft | 16 kts | 148° |
| 2026-05-01 14:23 | 39.54961 | 2.73915 | 30 ft | 19 kts | 148° |
| 2026-05-01 14:23 | 39.54860 | 2.73995 | 30 ft | 9 kts | 148° |
| 2026-05-01 14:23 | 39.54807 | 2.73971 | 30 ft | 10 kts | 248° |
| 2026-05-01 14:24 | 39.54766 | 2.73888 | 30 ft | 12 kts | 237° |
| 2026-05-01 14:24 | 39.54700 | 2.73754 | 30 ft | 26 kts | 238° |
| 2026-05-01 14:24 | 39.54599 | 2.73540 | 30 ft | 29 kts | 234° |
| 2026-05-01 14:24 | 39.54491 | 2.73315 | 30 ft | 28 kts | 239° |
| 2026-05-01 14:25 | 39.54387 | 2.73094 | 30 ft | 30 kts | 238° |
| 2026-05-01 14:25 | 39.54300 | 2.72912 | 30 ft | 14 kts | 238° |
| 2026-05-01 14:25 | 39.54265 | 2.72846 | 30 ft | 7 kts | 214° |
| 2026-05-01 14:25 | 39.54222 | 2.72865 | 30 ft | 8 kts | 127° |
| 2026-05-01 14:26 | 39.54182 | 2.72933 | 30 ft | 14 kts | 144° |
| 2026-05-01 14:26 | 39.54151 | 2.73203 | 30 ft | 19 kts | 81° |
| 2026-05-01 14:26 | 39.54224 | 2.73379 | 30 ft | 32 kts | 59° |
| 2026-05-01 14:27 | 39.54454 | 2.73868 | 30 ft | 94 kts | 58° |
| 2026-05-01 14:27 | 39.54889 | 2.74799 | 35 ft | 146 kts | 59° |
| 2026-05-01 14:27 | 39.55420 | 2.75904 | 686 ft | 140 kts | 61° |
| 2026-05-01 14:28 | 39.56449 | 2.78260 | 1514 ft | 175 kts | 62° |
| 2026-05-01 14:28 | 39.57094 | 2.79717 | 1848 ft | 200 kts | 61° |
| 2026-05-01 14:28 | 39.57828 | 2.81303 | 2641 ft | 208 kts | 61° |
| 2026-05-01 14:28 | 39.58580 | 2.82914 | 3598 ft | 209 kts | 60° |
| 2026-05-01 14:29 | 39.59085 | 2.84002 | 4125 ft | 214 kts | 60° |
| 2026-05-01 14:29 | 39.59857 | 2.85676 | 5045 ft | 217 kts | 62° |
| 2026-05-01 14:30 | 39.62244 | 2.90889 | 7693 ft | 234 kts | 61° |
| 2026-05-01 14:30 | 39.63086 | 2.92791 | 8148 ft | 258 kts | 62° |
| 2026-05-01 14:30 | 39.64004 | 2.94914 | 8651 ft | 280 kts | 61° |
| 2026-05-01 14:31 | 39.65971 | 2.99482 | 10218 ft | 298 kts | 60° |
| 2026-05-01 14:31 | 39.67024 | 3.01915 | 10638 ft | 320 kts | 60° |
| 2026-05-01 14:31 | 39.68158 | 3.04532 | 10949 ft | 344 kts | 60° |
| 2026-05-01 14:31 | 39.69366 | 3.07318 | 11338 ft | 361 kts | 60° |
| 2026-05-01 14:32 | 39.70605 | 3.10179 | 12031 ft | 366 kts | 60° |
| 2026-05-01 14:32 | 39.71859 | 3.13083 | 12738 ft | 370 kts | 60° |
| 2026-05-01 14:32 | 39.73109 | 3.15985 | 13449 ft | 374 kts | 60° |
| 2026-05-01 14:32 | 39.74382 | 3.18952 | 14128 ft | 379 kts | 60° |
| 2026-05-01 14:33 | 39.75676 | 3.21967 | 14752 ft | 382 kts | 60° |
| 2026-05-01 14:33 | 39.76987 | 3.25000 | 15383 ft | 386 kts | 59° |
| 2026-05-01 14:33 | 39.78577 | 3.27827 | 15984 ft | 390 kts | 48° |
| 2026-05-01 14:33 | 39.80379 | 3.30504 | 16647 ft | 393 kts | 48° |
| 2026-05-01 14:34 | 39.82183 | 3.33195 | 17274 ft | 396 kts | 48° |
| 2026-05-01 14:34 | 39.83981 | 3.35888 | 17930 ft | 400 kts | 48° |
| 2026-05-01 14:34 | 39.85832 | 3.38670 | 18567 ft | 404 kts | 48° |
| 2026-05-01 14:34 | 39.87655 | 3.41413 | 19125 ft | 407 kts | 48° |
| 2026-05-01 14:35 | 39.89518 | 3.44221 | 19660 ft | 411 kts | 48° |
| 2026-05-01 14:35 | 39.91401 | 3.47062 | 20208 ft | 415 kts | 48° |
| 2026-05-01 14:35 | 39.93294 | 3.49918 | 20709 ft | 419 kts | 48° |
| 2026-05-01 14:35 | 39.95210 | 3.52810 | 21233 ft | 422 kts | 48° |
| 2026-05-01 14:36 | 39.97142 | 3.55725 | 21719 ft | 426 kts | 48° |
| 2026-05-01 14:36 | 39.99083 | 3.58659 | 22223 ft | 428 kts | 48° |
| 2026-05-01 14:36 | 40.01042 | 3.61622 | 22710 ft | 431 kts | 48° |
| 2026-05-01 14:36 | 40.03003 | 3.64593 | 23182 ft | 434 kts | 49° |
| 2026-05-01 14:37 | 40.04981 | 3.67595 | 23639 ft | 438 kts | 49° |
| 2026-05-01 14:37 | 40.06947 | 3.70581 | 24034 ft | 440 kts | 49° |
| 2026-05-01 14:37 | 40.08947 | 3.73628 | 24414 ft | 443 kts | 49° |
| 2026-05-01 14:37 | 40.10966 | 3.76705 | 24803 ft | 445 kts | 49° |
| 2026-05-01 14:38 | 40.12985 | 3.79778 | 25191 ft | 448 kts | 49° |
| 2026-05-01 14:38 | 40.15020 | 3.82874 | 25583 ft | 450 kts | 49° |
| 2026-05-01 14:38 | 40.17069 | 3.85991 | 25949 ft | 453 kts | 49° |
| 2026-05-01 14:38 | 40.19125 | 3.89127 | 26337 ft | 455 kts | 48° |
| 2026-05-01 14:39 | 40.21191 | 3.92281 | 26712 ft | 457 kts | 48° |
| 2026-05-01 14:39 | 40.23264 | 3.95448 | 27090 ft | 459 kts | 48° |
| 2026-05-01 14:39 | 40.25343 | 3.98628 | 27443 ft | 461 kts | 48° |
| 2026-05-01 14:39 | 40.27405 | 4.01788 | 27798 ft | 463 kts | 48° |
| 2026-05-01 14:40 | 40.29499 | 4.05007 | 28118 ft | 465 kts | 48° |
| 2026-05-01 14:40 | 40.31603 | 4.08242 | 28449 ft | 468 kts | 48° |
| 2026-05-01 14:40 | 40.33722 | 4.11503 | 28761 ft | 470 kts | 48° |
| 2026-05-01 14:40 | 40.35845 | 4.14778 | 29098 ft | 472 kts | 48° |
| 2026-05-01 14:41 | 40.37976 | 4.18065 | 29412 ft | 474 kts | 48° |
| 2026-05-01 14:41 | 40.40123 | 4.21367 | 29736 ft | 476 kts | 48° |
| 2026-05-01 14:41 | 40.42279 | 4.24688 | 30117 ft | 477 kts | 49° |
| 2026-05-01 14:41 | 40.44428 | 4.28016 | 30469 ft | 477 kts | 49° |
| 2026-05-01 14:42 | 40.46654 | 4.31240 | 30823 ft | 476 kts | 42° |
| 2026-05-01 14:42 | 40.49212 | 4.33979 | 31200 ft | 474 kts | 33° |
| 2026-05-01 14:42 | 40.52015 | 4.36126 | 31592 ft | 471 kts | 24° |
| 2026-05-01 14:42 | 40.55061 | 4.37691 | 31995 ft | 468 kts | 15° |
| 2026-05-01 14:43 | 40.58225 | 4.38631 | 32405 ft | 465 kts | 8° |
| 2026-05-01 14:43 | 40.61452 | 4.39397 | 32827 ft | 464 kts | 8° |
| 2026-05-01 14:43 | 40.64600 | 4.40147 | 33245 ft | 463 kts | 8° |
| 2026-05-01 14:43 | 40.67770 | 4.40904 | 33670 ft | 462 kts | 8° |
| 2026-05-01 14:44 | 40.70921 | 4.41658 | 34101 ft | 461 kts | 8° |
| 2026-05-01 14:44 | 40.77231 | 4.43167 | 34846 ft | 460 kts | 8° |
| 2026-05-01 14:44 | 40.80389 | 4.43927 | 35204 ft | 460 kts | 8° |
| 2026-05-01 14:45 | 40.83543 | 4.44689 | 35572 ft | 459 kts | 8° |
| 2026-05-01 14:45 | 40.89851 | 4.46210 | 36173 ft | 461 kts | 8° |
| 2026-05-01 14:46 | 40.96094 | 4.47726 | 36242 ft | 459 kts | 8° |
| 2026-05-01 14:46 | 41.05500 | 4.50008 | 36252 ft | 458 kts | 8° |
| 2026-05-01 14:47 | 41.11769 | 4.51532 | 36243 ft | 457 kts | 8° |
| 2026-05-01 14:48 | 41.21152 | 4.53827 | 36246 ft | 457 kts | 8° |
| 2026-05-01 14:48 | 41.30551 | 4.56127 | 36246 ft | 457 kts | 8° |
| 2026-05-01 14:49 | 41.43055 | 4.59191 | 36264 ft | 456 kts | 7° |
| 2026-05-01 14:50 | 41.55512 | 4.62248 | 36267 ft | 455 kts | 7° |
| 2026-05-01 14:51 | 41.64868 | 4.64568 | 36261 ft | 455 kts | 7° |
| 2026-05-01 14:52 | 41.73884 | 4.68472 | 36276 ft | 462 kts | 28° |
| 2026-05-01 14:52 | 41.78863 | 4.73959 | 36282 ft | 466 kts | 43° |
| 2026-05-01 14:53 | 41.81146 | 4.76983 | 36269 ft | 466 kts | 42° |
| 2026-05-01 14:53 | 41.85781 | 4.83106 | 36271 ft | 466 kts | 42° |
| 2026-05-01 14:54 | 41.89618 | 4.88175 | 36281 ft | 466 kts | 42° |
| 2026-05-01 14:54 | 41.95013 | 4.95331 | 36282 ft | 466 kts | 42° |
| 2026-05-01 14:55 | 41.99594 | 5.01422 | 36291 ft | 465 kts | 42° |
| 2026-05-01 14:55 | 42.04187 | 5.07548 | 36287 ft | 465 kts | 42° |
| 2026-05-01 14:56 | 42.08779 | 5.13686 | 36306 ft | 464 kts | 43° |
| 2026-05-01 14:56 | 42.13354 | 5.19812 | 36298 ft | 463 kts | 43° |
| 2026-05-01 14:57 | 42.17923 | 5.25931 | 36304 ft | 463 kts | 43° |
| 2026-05-01 14:57 | 42.24733 | 5.35101 | 36303 ft | 462 kts | 43° |
| 2026-05-01 14:58 | 42.29274 | 5.41235 | 36314 ft | 460 kts | 43° |
| 2026-05-01 14:58 | 42.33797 | 5.47352 | 36311 ft | 459 kts | 43° |
| 2026-05-01 14:59 | 42.38284 | 5.53420 | 36310 ft | 458 kts | 43° |
| 2026-05-01 14:59 | 42.42790 | 5.59530 | 36301 ft | 458 kts | 43° |
| 2026-05-01 15:00 | 42.49518 | 5.68715 | 36298 ft | 458 kts | 43° |
| 2026-05-01 15:01 | 42.54000 | 5.74834 | 36313 ft | 458 kts | 43° |
| 2026-05-01 15:01 | 42.58461 | 5.80934 | 36312 ft | 457 kts | 43° |
| 2026-05-01 15:02 | 42.62940 | 5.87067 | 36294 ft | 457 kts | 43° |
| 2026-05-01 15:02 | 42.67410 | 5.93203 | 36293 ft | 457 kts | 43° |
| 2026-05-01 15:03 | 42.71880 | 5.99360 | 36293 ft | 457 kts | 43° |
| 2026-05-01 15:03 | 42.76313 | 6.05483 | 36290 ft | 456 kts | 43° |
| 2026-05-01 15:04 | 42.80770 | 6.11651 | 36309 ft | 456 kts | 43° |
| 2026-05-01 15:04 | 42.85228 | 6.17803 | 36309 ft | 454 kts | 40° |
| 2026-05-01 15:05 | 42.90026 | 6.23352 | 36320 ft | 451 kts | 37° |
| 2026-05-01 15:05 | 42.94795 | 6.28814 | 36323 ft | 449 kts | 37° |
| 2026-05-01 15:06 | 42.99582 | 6.34313 | 36312 ft | 449 kts | 37° |
| 2026-05-01 15:06 | 43.04369 | 6.39820 | 36303 ft | 448 kts | 37° |
| 2026-05-01 15:07 | 43.09113 | 6.45307 | 36304 ft | 448 kts | 38° |
| 2026-05-01 15:07 | 43.13868 | 6.50818 | 36315 ft | 448 kts | 37° |
| 2026-05-01 15:08 | 43.18626 | 6.56328 | 36316 ft | 447 kts | 37° |
| 2026-05-01 15:08 | 43.23078 | 6.62304 | 36310 ft | 452 kts | 50° |
| 2026-05-01 15:09 | 43.26156 | 6.68102 | 36314 ft | 452 kts | 51° |
| 2026-05-01 15:09 | 43.30453 | 6.76255 | 36306 ft | 452 kts | 51° |
| 2026-05-01 15:10 | 43.34140 | 6.83253 | 36304 ft | 452 kts | 51° |
| 2026-05-01 15:10 | 43.39047 | 6.92574 | 36313 ft | 451 kts | 51° |
| 2026-05-01 15:11 | 43.44547 | 7.03081 | 36308 ft | 450 kts | 51° |
| 2026-05-01 15:12 | 43.48214 | 7.10099 | 36305 ft | 450 kts | 51° |
| 2026-05-01 15:12 | 43.53674 | 7.20571 | 36301 ft | 450 kts | 51° |
| 2026-05-01 15:14 | 43.62756 | 7.38126 | 36301 ft | 450 kts | 51° |
| 2026-05-01 15:14 | 43.68202 | 7.48678 | 36298 ft | 450 kts | 51° |
| 2026-05-01 15:15 | 43.75456 | 7.62812 | 36321 ft | 449 kts | 51° |
| 2026-05-01 15:16 | 43.82955 | 7.76463 | 36322 ft | 442 kts | 39° |
| 2026-05-01 15:18 | 43.94951 | 7.89568 | 36288 ft | 440 kts | 39° |
| 2026-05-01 15:19 | 44.03396 | 8.01963 | 36272 ft | 442 kts | 44° |
| 2026-05-01 15:19 | 44.09710 | 8.11333 | 36266 ft | 442 kts | 44° |
| 2026-05-01 15:20 | 44.15987 | 8.20704 | 36269 ft | 443 kts | 44° |
| 2026-05-01 15:21 | 44.20180 | 8.26993 | 36279 ft | 443 kts | 44° |
| 2026-05-01 15:21 | 44.24368 | 8.33295 | 36291 ft | 443 kts | 44° |
| 2026-05-01 15:22 | 44.30654 | 8.42746 | 36329 ft | 442 kts | 44° |
| 2026-05-01 15:22 | 44.34837 | 8.49056 | 36309 ft | 442 kts | 44° |
| 2026-05-01 15:23 | 44.38964 | 8.55309 | 36290 ft | 440 kts | 45° |
| 2026-05-01 15:23 | 44.43122 | 8.61618 | 36277 ft | 440 kts | 44° |
| 2026-05-01 15:24 | 44.47285 | 8.67939 | 36267 ft | 441 kts | 45° |
| 2026-05-01 15:24 | 44.51444 | 8.74265 | 36289 ft | 440 kts | 44° |
| 2026-05-01 15:25 | 44.55550 | 8.80536 | 36300 ft | 438 kts | 45° |
| 2026-05-01 15:25 | 44.59667 | 8.86844 | 36306 ft | 437 kts | 45° |
| 2026-05-01 15:26 | 44.63777 | 8.93157 | 36310 ft | 437 kts | 45° |
| 2026-05-01 15:26 | 44.67860 | 8.99447 | 36312 ft | 436 kts | 45° |
| 2026-05-01 15:27 | 44.71951 | 9.05752 | 36325 ft | 436 kts | 45° |
| 2026-05-01 15:28 | 44.78062 | 9.15180 | 36338 ft | 435 kts | 45° |
| 2026-05-01 15:28 | 44.82131 | 9.21484 | 36340 ft | 434 kts | 45° |
| 2026-05-01 15:29 | 44.88186 | 9.30891 | 36339 ft | 433 kts | 45° |
| 2026-05-01 15:30 | 44.96244 | 9.43461 | 36329 ft | 432 kts | 45° |
| 2026-05-01 15:31 | 45.08310 | 9.62388 | 36343 ft | 432 kts | 45° |
| 2026-05-01 15:32 | 45.16342 | 9.75075 | 36350 ft | 431 kts | 45° |
| 2026-05-01 15:34 | 45.28325 | 9.94090 | 36329 ft | 431 kts | 45° |